Time;durP1;ratioP1;P1;durP2;ratioP2;P2;SDS_P1;SDS_P2;PMS_P1;PMS_P2;Temp;Humidity;BMP_temperature;BMP_pressure;BME280_temperature;BME280_humidity;BME280_pressure;Samples;Min_cycle;Max_cycle;Signal;HPM_P1;HPM_P2
2022/08/04 00:01:50;;;;;;;;;7.00;4.33;;;;;26.73;100.00;100761.41;5003375;28;45812;-76
2022/08/04 00:04:23;;;;;;;;;2.33;2.33;;;;;26.70;100.00;100752.78;5014207;28;45523;-77
2022/08/04 00:07:12;;;;;;;;;7.00;7.00;;;;;26.65;100.00;100756.53;5015051;28;45861;-80
2022/08/04 00:10:00;;;;;;;;;4.33;4.33;;;;;26.63;100.00;100760.81;5021875;28;45534;-79
2022/08/04 00:12:36;;;;;;;;;2.00;2.00;;;;;26.56;100.00;100750.00;5039369;28;46709;-78
2022/08/04 00:15:05;;;;;;;;;4.67;3.67;;;;;26.54;100.00;100749.47;5025346;28;46515;-79
2022/08/04 00:17:38;;;;;;;;;4.67;4.67;;;;;26.56;100.00;100755.63;5011720;28;45477;-79
2022/08/04 00:20:06;;;;;;;;;9.00;8.33;;;;;26.56;100.00;100767.72;5014310;28;45764;-80
2022/08/04 00:22:33;;;;;;;;;2.33;2.33;;;;;26.56;100.00;100758.44;5018721;28;45562;-79
2022/08/04 00:25:02;;;;;;;;;5.00;5.00;;;;;26.52;100.00;100752.59;5015134;28;48357;-79
2022/08/04 00:27:31;;;;;;;;;8.33;5.67;;;;;26.57;100.00;100760.09;5008547;28;45699;-79
2022/08/04 00:30:01;;;;;;;;;7.67;5.33;;;;;26.51;100.00;100765.03;5015127;28;45375;-79
2022/08/04 00:32:26;;;;;;;;;6.00;4.67;;;;;26.53;100.00;100759.91;5004149;28;45428;-78
2022/08/04 00:34:54;;;;;;;;;5.33;4.33;;;;;26.41;100.00;100743.56;5015636;28;45907;-79
2022/08/04 00:37:24;;;;;;;;;4.00;2.00;;;;;26.38;100.00;100749.84;5013478;28;45727;-78
2022/08/04 00:39:51;;;;;;;;;4.00;4.00;;;;;26.41;100.00;100754.00;5014368;28;45468;-78
2022/08/04 00:42:22;;;;;;;;;4.00;2.33;;;;;26.43;100.00;100762.94;4999899;28;45530;-78
2022/08/04 00:45:00;;;;;;;;;6.33;5.00;;;;;26.39;100.00;100770.34;5016911;28;45461;-77
2022/08/04 00:47:34;;;;;;;;;2.00;2.00;;;;;26.37;100.00;100767.84;4998007;28;45444;-79
2022/08/04 00:50:08;;;;;;;;;3.33;3.33;;;;;26.19;100.00;100747.16;5008721;28;45438;-79
2022/08/04 00:52:45;;;;;;;;;5.00;3.33;;;;;26.30;100.00;100769.44;5019259;28;45467;-78
2022/08/04 00:55:19;;;;;;;;;4.00;2.00;;;;;26.24;100.00;100763.06;5021379;28;47158;-78
2022/08/04 00:57:51;;;;;;;;;4.00;4.00;;;;;26.17;100.00;100766.31;5013113;28;45566;-79
2022/08/04 01:00:16;;;;;;;;;3.00;3.00;;;;;26.01;100.00;100740.50;5025390;28;45774;-79
2022/08/04 01:02:45;;;;;;;;;6.00;4.00;;;;;26.07;100.00;100769.34;5043057;28;45971;-80
2022/08/04 01:05:47;;;;;;;;;3.00;2.00;;;;;26.06;100.00;100770.50;5015196;28;46019;-80
2022/08/04 01:08:40;;;;;;;;;3.33;3.33;;;;;26.05;100.00;100775.28;5013070;28;45421;-79
2022/08/04 01:11:08;;;;;;;;;6.00;6.00;;;;;26.06;100.00;100776.09;5000906;28;45536;-78
2022/08/04 01:13:49;;;;;;;;;5.00;4.00;;;;;26.08;100.00;100766.22;5015118;28;45953;-77
2022/08/04 01:16:17;;;;;;;;;2.00;2.00;;;;;26.05;100.00;100763.22;5017508;28;46916;-79
2022/08/04 01:19:22;;;;;;;;;6.00;6.00;;;;;26.01;100.00;100762.19;5017553;28;45422;-78
2022/08/04 01:22:16;;;;;;;;;4.00;3.00;;;;;25.99;100.00;100764.44;5002702;28;45655;-79
2022/08/04 01:25:16;;;;;;;;;6.00;4.00;;;;;25.92;100.00;100752.78;5011875;28;46399;-78
2022/08/04 01:28:19;;;;;;;;;4.00;4.00;;;;;26.02;100.00;100761.03;5008723;28;48254;-81
2022/08/04 01:30:49;;;;;;;;;3.25;3.25;;;;;26.02;100.00;100767.47;5010118;28;45476;-81
2022/08/04 01:33:16;;;;;;;;;4.00;4.00;;;;;26.02;100.00;100773.09;5012818;28;45433;-79
2022/08/04 01:35:53;;;;;;;;;3.75;3.75;;;;;26.02;100.00;100775.91;5015043;28;45447;-78
2022/08/04 01:38:33;;;;;;;;;2.00;2.00;;;;;26.03;100.00;100757.91;5012488;28;47724;-79
2022/08/04 01:41:12;;;;;;;;;7.00;6.67;;;;;26.03;100.00;100759.88;5013868;28;45821;-79
2022/08/04 01:43:43;;;;;;;;;3.33;2.00;;;;;26.02;100.00;100761.03;5013344;28;45378;-78
2022/08/04 01:46:14;;;;;;;;;4.33;3.00;;;;;25.90;100.00;100742.69;5013965;28;45554;-80
2022/08/04 01:48:44;;;;;;;;;6.00;4.67;;;;;25.99;100.00;100753.19;5028653;28;46540;-79
2022/08/04 01:51:10;;;;;;;;;6.67;6.67;;;;;26.01;100.00;100756.56;5015242;28;45032;-80
2022/08/04 01:53:39;;;;;;;;;14.67;12.33;;;;;25.99;100.00;100753.19;5017056;28;45432;-81
2022/08/04 01:56:07;;;;;;;;;5.50;4.75;;;;;25.98;100.00;100759.97;5019729;28;46796;-80
2022/08/04 01:58:36;;;;;;;;;6.00;4.67;;;;;25.89;100.00;100748.63;5022357;28;46573;-80
2022/08/04 02:01:08;;;;;;;;;5.75;3.25;;;;;25.89;100.00;100755.06;4995548;28;45436;-80
2022/08/04 02:03:36;;;;;;;;;9.67;6.33;;;;;25.85;100.00;100748.41;5009411;28;45753;-79
2022/08/04 02:06:39;;;;;;;;;5.33;4.33;;;;;25.85;100.00;100748.41;5018188;28;45416;-80
2022/08/04 02:09:26;;;;;;;;;5.67;4.00;;;;;25.84;100.00;100751.50;5015338;28;45772;-81
2022/08/04 02:12:07;;;;;;;;;5.00;3.33;;;;;25.64;100.00;100724.69;5022635;28;45503;-80
2022/08/04 02:14:59;;;;;;;;;4.25;4.25;;;;;25.78;100.00;100749.94;5011453;28;45485;-79
2022/08/04 02:17:35;;;;;;;;;4.75;4.00;;;;;25.72;100.00;100740.81;5020521;28;46709;-78
2022/08/04 02:20:14;;;;;;;;;3.00;3.00;;;;;25.70;100.00;100740.28;5009807;28;45483;-77
2022/08/04 02:23:03;;;;;;;;;3.33;2.33;;;;;25.63;100.00;100718.25;5009094;28;45472;-81
2022/08/04 02:25:37;;;;;;;;;3.00;2.00;;;;;25.45;100.00;100693.88;5024710;28;45405;-78
2022/08/04 02:28:24;;;;;;;;;10.67;9.67;;;;;25.63;100.00;100731.44;5013752;28;45583;-80
2022/08/04 02:31:02;;;;;;;;;3.67;2.67;;;;;25.45;100.00;100708.75;5019224;28;45532;-80
2022/08/04 02:33:39;;;;;;;;;6.33;4.67;;;;;25.59;100.00;100725.63;5019885;28;46628;-79
2022/08/04 02:36:08;;;;;;;;;7.00;5.33;;;;;25.59;100.00;100713.56;5013658;28;45348;-79
2022/08/04 02:38:48;;;;;;;;;6.67;4.00;;;;;25.59;100.00;100721.97;5016650;28;45384;-81
2022/08/04 02:41:17;;;;;;;;;2.00;2.00;;;;;25.57;100.00;100732.69;5009603;28;46544;-82
2022/08/04 02:43:47;;;;;;;;;5.33;5.33;;;;;25.52;100.00;100731.66;5010413;28;45600;-79
2022/08/04 02:46:18;;;;;;;;;3.00;3.00;;;;;25.51;100.00;100727.16;5010009;28;45325;-80
2022/08/04 02:48:47;;;;;;;;;5.00;4.67;;;;;25.49;100.00;100746.28;5006498;28;45495;-79
2022/08/04 02:51:15;;;;;;;;;6.00;5.33;;;;;25.49;100.00;100749.09;5013062;28;45360;-79
2022/08/04 02:53:42;;;;;;;;;4.00;2.75;;;;;25.48;100.00;100747.44;5010787;28;45493;-80
2022/08/04 02:56:08;;;;;;;;;3.75;3.00;;;;;25.50;100.00;100744.34;5009627;28;45512;-79
2022/08/04 02:58:36;;;;;;;;;2.33;2.33;;;;;25.48;100.00;100750.25;5016942;28;45575;-79
2022/08/04 03:01:02;;;;;;;;;2.00;2.00;;;;;25.50;100.00;100755.56;5024718;28;45391;-78
2022/08/04 03:03:47;;;;;;;;;2.67;2.00;;;;;25.42;100.00;100742.22;5018891;28;45397;-79
2022/08/04 03:06:27;;;;;;;;;3.67;3.00;;;;;25.50;100.00;100759.19;5006824;28;45708;-77
2022/08/04 03:09:19;;;;;;;;;2.75;2.75;;;;;25.46;100.00;100741.28;5007680;28;45435;-78
2022/08/04 03:12:23;;;;;;;;;2.75;2.00;;;;;25.52;100.00;100748.50;5001961;28;45690;-80
2022/08/04 03:15:25;;;;;;;;;4.00;2.00;;;;;25.49;100.00;100732.25;5022619;28;45895;-81
2022/08/04 03:18:06;;;;;;;;;2.00;2.00;;;;;25.48;100.00;100739.03;5007842;28;45772;-80
2022/08/04 03:21:16;;;;;;;;;3.67;3.00;;;;;25.49;100.00;100751.06;5000733;28;46596;-79
2022/08/04 03:24:00;;;;;;;;;3.33;2.00;;;;;25.49;100.00;100745.47;5010485;28;46470;-80
2022/08/04 03:26:47;;;;;;;;;2.00;2.00;;;;;25.47;100.00;100744.97;5004471;28;45483;-79
2022/08/04 03:29:28;;;;;;;;;2.00;1.00;;;;;25.43;100.00;100736.31;5010311;28;45549;-80
2022/08/04 03:31:53;;;;;;;;;2.33;2.00;;;;;25.40;100.00;100736.09;5018966;28;45478;-81
2022/08/04 03:34:43;;;;;;;;;3.00;2.00;;;;;25.36;100.00;100733.91;5012150;28;45791;-79
2022/08/04 03:37:28;;;;;;;;;6.00;2.50;;;;;25.33;100.00;100742.09;5002554;28;45685;-79
2022/08/04 03:40:12;;;;;;;;;4.25;2.00;;;;;25.28;100.00;100745.81;5009346;28;45595;-81
2022/08/04 03:42:43;;;;;;;;;3.00;1.67;;;;;25.17;100.00;100739.53;5005254;28;45310;-79
2022/08/04 03:45:27;;;;;;;;;3.00;3.00;;;;;25.28;100.00;100753.41;5009666;28;45835;-80
2022/08/04 03:48:17;;;;;;;;;4.33;1.67;;;;;25.28;100.00;100743.00;5012545;28;45467;-82
2022/08/04 03:54:20;;;;;;;;;1.00;1.00;;;;;25.26;100.00;100734.06;4999821;28;45496;-82
2022/08/04 03:57:14;;;;;;;;;2.00;2.00;;;;;25.17;100.00;100705.88;5011886;28;45998;-82
2022/08/04 03:59:59;;;;;;;;;3.33;3.00;;;;;24.90;100.00;100680.56;4996111;28;45413;-84
2022/08/04 04:02:40;;;;;;;;;4.33;3.33;;;;;24.72;100.00;100721.53;5015000;28;45523;-84
2022/08/04 04:05:41;;;;;;;;;3.00;3.00;;;;;24.74;100.00;100731.28;5012595;28;45415;-85
2022/08/04 04:08:32;;;;;;;;;3.67;2.33;;;;;24.74;100.00;100719.25;5006541;28;45550;-86
2022/08/04 04:11:15;;;;;;;;;1.67;1.67;;;;;24.71;100.00;100743.13;5014590;28;45374;-86
2022/08/04 04:14:19;;;;;;;;;2.33;2.33;;;;;24.53;100.00;100711.13;5026881;28;45557;-85
2022/08/04 04:17:18;;;;;;;;;2.00;2.00;;;;;24.79;100.00;100767.69;5025918;28;45468;-84
2022/08/04 04:20:08;;;;;;;;;2.33;2.00;;;;;24.83;100.00;100763.13;5025916;28;45900;-84
2022/08/04 04:22:52;;;;;;;;;2.00;2.00;;;;;24.85;100.00;100772.06;5019902;28;45521;-84
2022/08/04 04:25:29;;;;;;;;;1.00;1.00;;;;;24.91;100.00;100788.81;5031913;28;45836;-83
2022/08/04 04:28:07;;;;;;;;;1.67;1.33;;;;;24.92;100.00;100788.50;5032959;28;44854;-83
2022/08/04 04:30:52;;;;;;;;;4.33;4.33;;;;;24.65;100.00;100736.75;5028082;28;47112;-84
2022/08/04 04:33:36;;;;;;;;;4.33;3.00;;;;;24.94;100.00;100769.41;5034668;28;45855;-84
2022/08/04 04:36:10;;;;;;;;;2.67;2.00;;;;;24.95;100.00;100754.22;5035649;28;45542;-84
2022/08/04 04:39:09;;;;;;;;;9.00;5.33;;;;;24.95;100.00;100753.41;5017364;28;45360;-85
2022/08/04 04:42:04;;;;;;;;;16.33;14.00;;;;;24.84;100.00;100759.19;5006484;28;45493;-84
2022/08/04 04:45:22;;;;;;;;;9.00;7.67;;;;;24.92;100.00;100779.28;5014263;28;45851;-85
2022/08/04 04:48:42;;;;;;;;;;;;;;;;;;;;;
2022/08/04 04:51:21;;;;;;;;;3.00;2.00;;;;;24.75;100.00;100769.44;4973111;28;74534;-81
2022/08/04 04:54:18;;;;;;;;;4.00;3.00;;;;;25.05;100.00;100839.41;5017122;28;45954;-81
2022/08/04 04:56:49;;;;;;;;;4.33;4.33;;;;;25.06;100.00;100841.91;5021071;28;45435;-84
2022/08/04 04:59:21;;;;;;;;;3.67;3.67;;;;;25.04;100.00;100844.16;5009448;28;45410;-84
2022/08/04 05:01:57;;;;;;;;;2.67;2.67;;;;;24.98;100.00;100814.53;5020873;28;45339;-83
2022/08/04 05:04:34;;;;;;;;;4.33;3.00;;;;;25.02;100.00;100802.38;5009715;28;48140;-82
2022/08/04 05:07:43;;;;;;;;;3.00;3.00;;;;;24.81;100.00;100782.22;5020107;28;45450;-80
2022/08/04 05:10:48;;;;;;;;;3.67;2.67;;;;;24.91;100.00;100814.91;5011379;28;45441;-84
2022/08/04 05:13:27;;;;;;;;;3.67;3.00;;;;;24.84;100.00;100818.09;5007286;28;45585;-81
2022/08/04 05:16:11;;;;;;;;;5.33;2.33;;;;;24.85;100.00;100813.31;5019302;28;45415;-81
2022/08/04 05:19:19;;;;;;;;;4.00;2.33;;;;;24.94;100.00;100807.84;5014956;28;45382;-84
2022/08/04 05:22:17;;;;;;;;;5.00;3.00;;;;;24.55;100.00;100750.91;5012415;28;45534;-81
2022/08/04 05:24:57;;;;;;;;;4.33;3.00;;;;;24.71;100.00;100779.56;5033271;28;46115;-84
2022/08/04 05:27:40;;;;;;;;;5.33;3.00;;;;;24.82;100.00;100795.13;5020961;28;45389;-83
2022/08/04 05:30:13;;;;;;;;;3.00;3.00;;;;;24.78;100.00;100793.25;5021966;28;45636;-84
2022/08/04 05:32:59;;;;;;;;;5.00;3.00;;;;;24.85;100.00;100822.56;5019389;28;45727;-83
2022/08/04 05:35:33;;;;;;;;;3.00;2.00;;;;;24.95;100.00;100844.00;5013932;28;45510;-81
2022/08/04 05:38:02;;;;;;;;;3.67;2.33;;;;;25.08;100.00;100848.03;5007837;28;45420;-81
2022/08/04 05:40:28;;;;;;;;;4.00;3.00;;;;;25.06;100.00;100833.50;5015474;28;45827;-80
2022/08/04 05:42:56;;;;;;;;;8.00;4.00;;;;;25.02;100.00;100832.41;5014742;28;45410;-81
2022/08/04 05:45:25;;;;;;;;;4.33;2.00;;;;;24.93;100.00;100832.28;5014634;28;45407;-82
2022/08/04 05:47:52;;;;;;;;;2.33;2.33;;;;;24.87;100.00;100818.63;5003193;28;47457;-80
2022/08/04 05:50:19;;;;;;;;;4.33;3.67;;;;;25.04;100.00;100821.72;5014366;28;45346;-84
2022/08/04 05:52:46;;;;;;;;;4.00;3.00;;;;;25.15;100.00;100809.19;5011190;28;45701;-82
2022/08/04 05:55:12;;;;;;;;;5.00;5.00;;;;;25.15;100.00;100775.53;5015581;28;45514;-81
2022/08/04 05:57:47;;;;;;;;;3.67;3.00;;;;;25.25;100.00;100782.09;5014524;28;45616;-81
2022/08/04 06:00:17;;;;;;;;;2.67;2.67;;;;;25.54;100.00;100801.56;5015830;28;45724;-79
2022/08/04 06:02:46;;;;;;;;;3.33;3.33;;;;;25.62;100.00;100791.56;5016319;28;45673;-81
2022/08/04 06:05:14;;;;;;;;;6.33;2.67;;;;;25.78;100.00;100790.13;5014922;28;46099;-78
2022/08/04 06:07:41;;;;;;;;;2.33;2.33;;;;;26.18;100.00;100787.69;5018153;28;45439;-80
2022/08/04 06:10:21;;;;;;;;;5.00;2.00;;;;;26.32;100.00;100798.03;5008876;28;45780;-82
2022/08/04 06:13:02;;;;;;;;;4.33;3.67;;;;;26.50;100.00;100822.41;5015585;28;45856;-82
2022/08/04 06:15:49;;;;;;;;;3.00;3.00;;;;;26.72;100.00;100804.78;5014763;28;45449;-79
2022/08/04 06:18:19;;;;;;;;;3.00;2.00;;;;;26.90;100.00;100802.97;5030017;28;46155;-84
2022/08/04 06:21:00;;;;;;;;;6.33;2.00;;;;;26.95;100.00;100802.81;5022249;28;45419;-83
2022/08/04 06:23:37;;;;;;;;;2.00;2.00;;;;;26.85;100.00;100797.44;5021001;28;45512;-90
2022/08/04 06:26:08;;;;;;;;;3.00;3.00;;;;;26.85;100.00;100814.31;5017166;28;45873;-87
2022/08/04 06:28:35;;;;;;;;;2.00;2.00;;;;;26.72;100.00;100801.13;5031146;28;46089;-88
2022/08/04 06:31:04;;;;;;;;;3.00;1.67;;;;;26.57;100.00;100799.47;5010331;28;45507;-86
2022/08/04 06:33:37;;;;;;;;;4.00;3.00;;;;;26.48;100.00;100790.13;5011138;28;45625;-86
2022/08/04 06:36:07;;;;;;;;;2.33;2.00;;;;;26.53;100.00;100818.16;5031764;28;45541;-87
2022/08/04 06:38:42;;;;;;;;;2.00;2.00;;;;;26.36;100.00;100805.56;5040808;28;45696;-85
2022/08/04 06:41:13;;;;;;;;;1.67;1.67;;;;;26.55;100.00;100825.09;5022813;28;45107;-88
2022/08/04 06:43:40;;;;;;;;;3.67;3.00;;;;;26.53;100.00;100826.59;5027833;28;45021;-85
2022/08/04 06:46:08;;;;;;;;;4.00;2.67;;;;;26.59;100.00;100830.94;5012538;28;45432;-79
2022/08/04 06:48:34;;;;;;;;;2.67;2.67;;;;;26.71;100.00;100830.44;5011639;28;47284;-82
2022/08/04 06:51:01;;;;;;;;;2.33;2.33;;;;;26.73;100.00;100819.69;5003749;28;45753;-77
2022/08/04 06:53:29;;;;;;;;;2.00;2.00;;;;;26.86;100.00;100818.81;5013276;28;45475;-81
2022/08/04 06:56:00;;;;;;;;;4.00;3.00;;;;;27.26;100.00;100818.13;5006100;28;45586;-80
2022/08/04 06:58:30;;;;;;;;;3.00;3.00;;;;;28.35;100.00;100826.19;5004877;28;47941;-79
2022/08/04 07:01:00;;;;;;;;;3.00;3.00;;;;;29.72;100.00;100829.72;4997361;28;45882;-79
2022/08/04 07:03:27;;;;;;;;;2.00;1.00;;;;;30.45;100.00;100830.75;5008891;28;46204;-81
2022/08/04 07:05:53;;;;;;;;;2.00;1.50;;;;;30.85;98.98;100832.31;5007842;28;46751;-82
2022/08/04 07:08:20;;;;;;;;;2.25;1.25;;;;;31.15;92.99;100814.13;5009267;28;46093;-83
2022/08/04 07:10:47;;;;;;;;;1.75;1.50;;;;;31.41;89.19;100826.34;5010034;28;45605;-83
2022/08/04 07:13:14;;;;;;;;;1.00;1.00;;;;;31.63;87.67;100847.81;5011342;28;45626;-83
2022/08/04 07:15:46;;;;;;;;;1.00;1.00;;;;;31.74;88.10;100837.69;5011558;28;45750;-81
2022/08/04 07:18:12;;;;;;;;;2.00;1.00;;;;;32.18;83.47;100843.69;5014107;28;46512;-81
2022/08/04 07:20:42;;;;;;;;;1.75;1.50;;;;;32.36;79.46;100849.94;5014610;28;45506;-83
2022/08/04 07:23:10;;;;;;;;;2.00;2.00;;;;;32.50;78.01;100849.59;5012506;28;45985;-82
2022/08/04 07:25:36;;;;;;;;;1.00;1.00;;;;;32.73;75.68;100857.66;5011822;28;45578;-80
2022/08/04 07:28:02;;;;;;;;;3.00;2.00;;;;;32.87;75.43;100855.22;5014402;28;47209;-79
2022/08/04 07:30:32;;;;;;;;;8.50;5.75;;;;;33.03;71.33;100826.09;5012932;28;45544;-78
2022/08/04 07:33:00;;;;;;;;;3.00;2.25;;;;;33.29;69.73;100853.25;5009848;28;45416;-80
2022/08/04 07:35:28;;;;;;;;;4.00;2.50;;;;;33.29;66.89;100844.72;5002219;28;45828;-80
2022/08/04 07:37:53;;;;;;;;;3.25;2.00;;;;;33.12;66.80;100858.00;5017323;28;47200;-80
2022/08/04 07:40:19;;;;;;;;;2.00;1.25;;;;;32.74;67.50;100876.31;5018233;28;45444;-81
2022/08/04 07:42:45;;;;;;;;;3.25;2.00;;;;;32.33;71.43;100870.53;5016291;28;45386;-82
2022/08/04 07:45:11;;;;;;;;;2.25;2.00;;;;;32.00;76.25;100879.94;5018702;28;45505;-83
2022/08/04 07:47:39;;;;;;;;;3.75;1.25;;;;;31.57;79.36;100864.22;5017150;28;45483;-83
2022/08/04 07:50:09;;;;;;;;;1.25;1.25;;;;;31.32;82.07;100864.13;5019823;28;45441;-79
2022/08/04 07:52:35;;;;;;;;;3.00;2.00;;;;;30.88;83.08;100842.97;5018059;28;45428;-78
2022/08/04 07:55:02;;;;;;;;;2.00;2.00;;;;;30.85;84.58;100867.13;5017667;28;45761;-80
2022/08/04 07:57:28;;;;;;;;;1.75;1.75;;;;;30.78;86.34;100890.34;5013609;28;46355;-80
2022/08/04 07:59:54;;;;;;;;;2.25;1.25;;;;;30.45;88.16;100845.75;5024458;28;45400;-81
2022/08/04 08:02:21;;;;;;;;;3.00;2.00;;;;;30.31;89.78;100853.63;5014821;28;45467;-79
2022/08/04 08:04:47;;;;;;;;;1.00;1.00;;;;;30.29;91.34;100879.41;4998340;28;47252;-81
2022/08/04 08:07:14;;;;;;;;;1.50;1.25;;;;;29.99;92.11;100849.44;5010175;28;47753;-80
2022/08/04 08:09:40;;;;;;;;;2.00;2.00;;;;;30.14;92.94;100915.94;5014273;28;45476;-81
2022/08/04 08:12:07;;;;;;;;;2.75;2.00;;;;;29.87;94.16;100884.91;5014947;28;45741;-83
2022/08/04 08:14:34;;;;;;;;;0.50;0.50;;;;;29.85;94.40;100923.16;5015368;28;46402;-83
2022/08/04 08:17:02;;;;;;;;;2.25;1.25;;;;;29.57;95.98;100913.03;5019630;28;45779;-82
2022/08/04 08:19:32;;;;;;;;;1.00;1.00;;;;;29.34;97.73;100911.56;5013370;28;45549;-83
2022/08/04 08:21:59;;;;;;;;;1.50;1.50;;;;;29.26;99.37;100904.75;5015183;28;45518;-82
2022/08/04 08:24:25;;;;;;;;;1.00;1.00;;;;;29.23;100.00;100911.06;5017231;28;45393;-80
2022/08/04 08:26:51;;;;;;;;;2.00;2.00;;;;;28.98;100.00;100907.88;5014866;28;45820;-80
2022/08/04 08:29:24;;;;;;;;;3.00;3.00;;;;;28.92;100.00;100916.81;5017833;28;45332;-82
2022/08/04 08:31:50;;;;;;;;;2.25;2.25;;;;;28.81;100.00;100922.75;5016522;28;45442;-83
2022/08/04 08:34:16;;;;;;;;;0.25;0.25;;;;;28.79;100.00;100935.53;5017959;28;45795;-82
2022/08/04 08:36:56;;;;;;;;;2.00;1.00;;;;;28.63;100.00;100909.78;5018219;28;46262;-83
2022/08/04 08:39:39;;;;;;;;;1.00;1.00;;;;;28.67;100.00;100913.63;5012828;28;45875;-82
2022/08/04 08:42:43;;;;;;;;;1.00;1.00;;;;;28.85;100.00;100923.78;5015477;28;46432;-83
2022/08/04 08:45:18;;;;;;;;;1.25;0.75;;;;;29.10;100.00;100895.88;4954876;28;45791;-81
2022/08/04 08:48:32;;;;;;;;;1.00;1.00;;;;;29.31;100.00;100895.25;5006504;28;46319;-82
2022/08/04 08:51:23;;;;;;;;;2.25;1.00;;;;;29.63;100.00;100891.09;5013953;28;45794;-80
2022/08/04 08:54:18;;;;;;;;;1.00;1.00;;;;;29.97;100.00;100894.19;5011532;28;45485;-78
2022/08/04 08:56:46;;;;;;;;;2.50;1.50;;;;;30.32;100.00;100899.72;5015320;28;45499;-81
2022/08/04 08:59:25;;;;;;;;;1.00;1.00;;;;;30.50;100.00;100909.00;5009611;28;45477;-81
2022/08/04 09:01:53;;;;;;;;;0.25;0.25;;;;;30.71;98.51;100907.03;5017300;28;45817;-81
2022/08/04 09:04:40;;;;;;;;;1.75;1.00;;;;;30.87;98.13;100920.59;5004192;28;45923;-80
2022/08/04 09:07:33;;;;;;;;;1.00;1.00;;;;;31.04;96.30;100919.69;5021153;28;45904;-79
2022/08/04 09:10:16;;;;;;;;;1.00;1.00;;;;;31.23;94.73;100913.53;5028400;28;45522;-82
2022/08/04 09:13:01;;;;;;;;;1.25;0.50;;;;;31.39;93.15;100911.72;5023040;28;45999;-84
2022/08/04 09:15:56;;;;;;;;;2.00;1.25;;;;;31.51;91.60;100910.94;5002448;28;45945;-81
2022/08/04 09:18:43;;;;;;;;;4.50;2.00;;;;;31.67;90.99;100908.34;5012118;28;46252;-80
2022/08/04 09:21:17;;;;;;;;;1.00;1.00;;;;;31.83;88.58;100895.16;5014695;28;48423;-81
2022/08/04 09:24:07;;;;;;;;;1.25;1.25;;;;;32.40;84.03;100923.88;5010082;28;45430;-81
2022/08/04 09:26:45;;;;;;;;;1.00;1.00;;;;;32.81;81.55;100921.19;5037429;28;45447;-85
2022/08/04 09:29:26;;;;;;;;;0.50;0.50;;;;;32.75;79.17;100877.16;5026814;28;45388;-80
2022/08/04 09:32:36;;;;;;;;;1.00;1.00;;;;;33.27;77.17;100929.53;5028074;28;46381;-80
2022/08/04 09:35:06;;;;;;;;;0.00;0.00;;;;;33.63;74.14;100937.09;5002644;28;45888;-79
2022/08/04 09:37:41;;;;;;;;;1.75;1.00;;;;;33.87;72.52;100932.50;5007249;28;45529;-82
2022/08/04 09:40:20;;;;;;;;;0.00;0.00;;;;;34.19;70.33;100939.06;5019432;28;45483;-81
2022/08/04 09:43:03;;;;;;;;;1.50;1.50;;;;;34.36;69.36;100955.00;5030351;28;46388;-80
2022/08/04 09:45:40;;;;;;;;;0.75;0.75;;;;;34.65;67.33;100942.28;5016623;28;45524;-79
2022/08/04 09:48:07;;;;;;;;;1.50;1.00;;;;;35.27;63.60;100936.06;5015388;28;45371;-83
2022/08/04 09:50:52;;;;;;;;;1.75;0.75;;;;;35.51;62.03;100939.81;5027750;28;46002;-84
2022/08/04 09:53:36;;;;;;;;;0.50;0.50;;;;;35.69;60.69;100941.00;5010495;28;47866;-83
2022/08/04 09:56:01;;;;;;;;;0.00;0.00;;;;;35.61;59.58;100936.34;5014788;28;45653;-82
2022/08/04 09:58:53;;;;;;;;;2.00;1.00;;;;;35.49;59.85;100928.75;5028717;28;45507;-83
2022/08/04 10:01:30;;;;;;;;;1.00;0.00;;;;;35.77;58.92;100924.03;4988435;28;45388;-79
2022/08/04 10:04:02;;;;;;;;;1.00;1.00;;;;;35.93;56.59;100907.66;5016432;28;45739;-81
2022/08/04 10:06:50;;;;;;;;;1.00;0.75;;;;;36.34;55.53;100932.88;5020706;28;45511;-80
2022/08/04 10:09:46;;;;;;;;;2.25;0.75;;;;;36.63;54.24;100936.22;5014942;28;45506;-80
2022/08/04 10:12:24;;;;;;;;;3.00;1.00;;;;;36.69;52.93;100929.78;5004418;28;45872;-79
2022/08/04 10:15:07;;;;;;;;;1.25;1.25;;;;;36.56;52.04;100932.03;5013223;28;47956;-80
2022/08/04 10:17:50;;;;;;;;;1.00;1.00;;;;;36.36;52.44;100924.75;5001845;28;45933;-79
2022/08/04 10:20:22;;;;;;;;;1.00;1.00;;;;;36.22;52.32;100933.88;5002662;28;45478;-80
2022/08/04 10:23:15;;;;;;;;;1.25;0.75;;;;;35.98;53.12;100937.91;5012085;28;45753;-81
2022/08/04 10:26:20;;;;;;;;;2.50;1.00;;;;;35.97;53.60;100933.41;5005408;28;46905;-83
2022/08/04 10:29:06;;;;;;;;;0.00;0.00;;;;;35.69;53.70;100903.91;5017854;28;45557;-83
2022/08/04 10:31:42;;;;;;;;;1.00;0.25;;;;;35.62;53.26;100886.66;5015936;28;45583;-83
2022/08/04 10:34:17;;;;;;;;;2.00;1.00;;;;;36.01;53.05;100928.59;5009619;28;45641;-84
2022/08/04 10:37:08;;;;;;;;;1.00;0.00;;;;;37.10;50.57;100924.28;5018141;28;46178;-84
2022/08/04 10:42:41;;;;;;;;;4.50;4.50;;;;;38.81;45.74;100885.59;5016246;28;45403;-83
2022/08/04 10:45:24;;;;;;;;;3.50;3.50;;;;;39.69;43.48;100916.38;5001133;28;45679;-83
2022/08/04 10:48:06;;;;;;;;;0.00;0.00;;;;;40.56;41.24;100886.50;5016202;28;45753;-81
2022/08/04 10:50:39;;;;;;;;;3.00;1.00;;;;;41.58;38.17;100910.06;5012279;28;45888;-79
2022/08/04 10:53:12;;;;;;;;;0.25;0.25;;;;;42.04;36.65;100887.97;5012042;28;45813;-79
2022/08/04 10:55:47;;;;;;;;;1.00;0.00;;;;;41.95;36.44;100874.03;5009760;28;47046;-81
2022/08/04 10:58:19;;;;;;;;;0.00;0.00;;;;;42.25;35.25;100869.69;5011723;28;47320;-79
2022/08/04 11:00:55;;;;;;;;;0.00;0.00;;;;;43.09;33.37;100905.13;5012124;28;45742;-81
2022/08/04 11:03:30;;;;;;;;;0.25;0.25;;;;;43.94;31.97;100895.75;5001271;28;45492;-78
2022/08/04 11:06:03;;;;;;;;;0.00;0.00;;;;;44.29;31.88;100910.91;5011469;28;45463;-80
2022/08/04 11:08:34;;;;;;;;;0.00;0.00;;;;;44.88;30.76;100907.34;5013122;28;46378;-81
2022/08/04 11:11:19;;;;;;;;;1.00;1.00;;;;;45.29;30.16;100882.16;5011499;28;45661;-81
2022/08/04 11:13:52;;;;;;;;;0.75;0.75;;;;;45.67;29.47;100904.09;5010494;28;45845;-83
2022/08/04 11:16:28;;;;;;;;;1.50;1.00;;;;;45.66;28.75;100897.47;5014668;28;45821;-79
2022/08/04 11:19:08;;;;;;;;;1.33;1.33;;;;;45.79;28.79;100903.38;5012825;28;47819;-84
2022/08/04 11:21:54;;;;;;;;;1.25;1.25;;;;;45.56;28.71;100889.84;5013782;28;45471;-80
2022/08/04 11:24:51;;;;;;;;;1.00;1.00;;;;;45.42;28.17;100888.91;5015034;28;45712;-81
2022/08/04 11:27:50;;;;;;;;;2.33;2.33;;;;;44.83;28.60;100886.81;4997760;28;45565;-80
2022/08/04 11:30:17;;;;;;;;;2.75;2.75;;;;;44.01;29.43;100858.88;5011431;28;45814;-80
2022/08/04 11:33:00;;;;;;;;;2.00;2.00;;;;;43.50;30.13;100879.03;5014022;28;45749;-78
2022/08/04 11:36:05;;;;;;;;;1.00;1.00;;;;;42.74;30.79;100878.31;5015759;28;45503;-79
2022/08/04 11:38:41;;;;;;;;;0.25;0.25;;;;;42.01;31.78;100868.63;5023682;28;45640;-81
2022/08/04 11:41:11;;;;;;;;;1.00;1.00;;;;;41.33;33.11;100872.75;5016736;28;45411;-81
2022/08/04 11:43:57;;;;;;;;;1.00;1.00;;;;;40.77;33.91;100893.47;5014687;28;45591;-78
2022/08/04 11:46:31;;;;;;;;;0.00;0.00;;;;;40.10;34.70;100901.69;5029038;28;45568;-78
2022/08/04 11:49:22;;;;;;;;;1.50;0.25;;;;;39.37;35.92;100865.38;5016076;28;45897;-80
2022/08/04 11:51:50;;;;;;;;;1.00;1.00;;;;;38.94;37.01;100905.31;5016287;28;46770;-83
2022/08/04 11:54:17;;;;;;;;;1.00;1.00;;;;;38.31;37.93;100890.94;5018788;28;45844;-83
2022/08/04 11:56:45;;;;;;;;;3.75;2.75;;;;;37.90;39.25;100885.22;5032375;28;45420;-82
2022/08/04 11:59:10;;;;;;;;;2.00;2.00;;;;;37.50;40.24;100896.22;5033500;28;45781;-82
2022/08/04 12:01:59;;;;;;;;;1.75;1.00;;;;;36.85;41.70;100891.66;5031297;28;46369;-82
2022/08/04 12:04:55;;;;;;;;;1.00;1.00;;;;;36.23;43.24;100895.56;5014001;28;45615;-83
2022/08/04 12:07:27;;;;;;;;;1.00;1.00;;;;;35.94;44.49;100902.75;5017278;28;45557;-79
2022/08/04 12:10:13;;;;;;;;;1.25;1.25;;;;;35.65;45.70;100905.88;5016222;28;47339;-80
2022/08/04 12:12:57;;;;;;;;;1.00;1.00;;;;;35.41;47.47;100901.31;5024340;28;45873;-82
2022/08/04 12:15:29;;;;;;;;;1.25;1.25;;;;;35.13;48.78;100902.31;5024907;28;45485;-82
2022/08/04 12:18:23;;;;;;;;;2.00;2.00;;;;;34.99;49.64;100911.38;5017009;28;45475;-82